Time;durP1;ratioP1;P1;durP2;ratioP2;P2;SDS_P1;SDS_P2;PMS_P1;PMS_P2;Temp;Humidity;BMP_temperature;BMP_pressure;BME280_temperature;BME280_humidity;BME280_pressure;Samples;Min_cycle;Max_cycle;Signal;HPM_P1;HPM_P2
2020/12/30 00:01:27;;;;;;;22.77;13.50;;;-3.10;91.80;;;;;;4994666;28;20037;-80
2020/12/30 00:03:53;;;;;;;23.73;12.10;;;-3.20;91.80;;;;;;4994125;28;20033;-81
2020/12/30 00:06:20;;;;;;;26.15;15.27;;;-3.20;91.90;;;;;;4994733;28;20033;-80
2020/12/30 00:08:49;;;;;;;24.83;13.57;;;-3.20;91.80;;;;;;4994511;28;20097;-79
2020/12/30 00:11:18;;;;;;;24.63;15.07;;;-3.10;91.90;;;;;;4998954;28;20368;-81
2020/12/30 00:13:44;;;;;;;29.45;17.13;;;-3.10;92.10;;;;;;5002920;28;20073;-80
2020/12/30 00:16:11;;;;;;;26.60;14.35;;;-3.10;92.10;;;;;;4993826;28;20479;-79
2020/12/30 00:18:37;;;;;;;27.95;14.90;;;-3.00;92.20;;;;;;4994306;28;20046;-79
2020/12/30 00:21:04;;;;;;;23.92;15.10;;;-3.00;92.10;;;;;;4993970;28;21618;-79
2020/12/30 00:23:30;;;;;;;30.88;17.05;;;-3.00;92.10;;;;;;4984204;28;20023;-80
2020/12/30 00:25:56;;;;;;;26.50;15.02;;;-3.00;92.10;;;;;;4994225;28;20022;-78
2020/12/30 00:28:22;;;;;;;29.20;16.90;;;-2.90;92.00;;;;;;4994380;28;20026;-79
2020/12/30 00:30:48;;;;;;;28.15;16.02;;;-2.90;91.90;;;;;;4997376;28;20030;-80
2020/12/30 00:33:13;;;;;;;29.10;14.93;;;-2.90;91.90;;;;;;4994801;28;20416;-80
2020/12/30 00:35:39;;;;;;;28.88;17.65;;;-2.90;91.90;;;;;;4994658;28;20026;-80
2020/12/30 00:38:05;;;;;;;27.10;15.43;;;-2.90;91.90;;;;;;4994060;28;20073;-80
2020/12/30 00:40:31;;;;;;;27.17;18.10;;;-2.90;91.90;;;;;;4994035;28;20460;-79
2020/12/30 00:42:57;;;;;;;28.13;15.63;;;-2.90;92.00;;;;;;4994364;28;20033;-81
2020/12/30 00:45:23;;;;;;;26.33;16.83;;;-2.90;92.00;;;;;;4994150;28;20030;-81
2020/12/30 00:47:49;;;;;;;28.10;16.88;;;-2.90;92.10;;;;;;4993920;28;20022;-80
2020/12/30 00:50:15;;;;;;;32.88;17.60;;;-2.90;92.30;;;;;;4993637;28;20034;-80
2020/12/30 00:52:41;;;;;;;31.05;17.77;;;-2.90;92.30;;;;;;4994239;28;20522;-80
2020/12/30 00:55:06;;;;;;;30.40;19.23;;;-2.80;92.40;;;;;;4993663;28;20080;-80
2020/12/30 00:57:32;;;;;;;30.27;18.00;;;-2.80;92.40;;;;;;4993899;28;20030;-80
2020/12/30 00:59:58;;;;;;;31.73;17.50;;;-2.80;92.20;;;;;;4993540;28;20442;-78
2020/12/30 01:02:24;;;;;;;28.27;15.98;;;-2.80;92.20;;;;;;4993866;28;20026;-80
2020/12/30 01:04:50;;;;;;;26.77;16.90;;;-2.80;92.10;;;;;;4993821;28;20022;-81
2020/12/30 01:07:18;;;;;;;34.70;16.70;;;-2.80;92.20;;;;;;4993238;28;20029;-79
2020/12/30 01:09:44;;;;;;;29.85;15.70;;;-2.70;92.20;;;;;;4992570;28;20117;-78
2020/12/30 01:12:10;;;;;;;30.67;14.90;;;-2.80;92.00;;;;;;5005875;28;20072;-78
2020/12/30 01:14:36;;;;;;;25.08;14.32;;;-2.80;92.10;;;;;;5013272;28;20021;-80
2020/12/30 01:17:02;;;;;;;25.45;15.43;;;-2.70;92.00;;;;;;5014617;28;20423;-79
2020/12/30 01:19:28;;;;;;;21.73;13.30;;;-2.70;92.00;;;;;;5012854;28;20042;-79
2020/12/30 01:21:54;;;;;;;27.33;18.77;;;-2.70;92.00;;;;;;5003080;28;20105;-79
2020/12/30 01:24:20;;;;;;;27.52;15.43;;;-2.70;91.90;;;;;;4999911;28;20030;-80
2020/12/30 01:26:46;;;;;;;23.98;15.98;;;-2.70;91.90;;;;;;5011913;28;20459;-80
2020/12/30 01:29:13;;;;;;;27.38;13.45;;;-2.70;91.90;;;;;;5013492;28;20028;-79
2020/12/30 01:31:39;;;;;;;28.98;14.75;;;-2.70;91.80;;;;;;5012594;28;20113;-80
2020/12/30 01:34:06;;;;;;;27.23;15.20;;;-2.70;91.70;;;;;;5013040;28;20045;-78
2020/12/30 01:36:32;;;;;;;24.73;13.10;;;-2.70;91.70;;;;;;5013424;28;20057;-78
2020/12/30 01:38:58;;;;;;;28.83;13.40;;;-2.80;91.50;;;;;;5014232;28;20113;-80
2020/12/30 01:41:24;;;;;;;23.23;12.80;;;-2.80;91.60;;;;;;5012862;28;20172;-79
2020/12/30 01:44:07;;;;;;;23.63;14.35;;;-2.70;91.50;;;;;;5008570;28;20121;-80
2020/12/30 01:46:40;;;;;;;22.95;14.40;;;-2.70;91.50;;;;;;5008404;28;20125;-80
2020/12/30 01:49:18;;;;;;;22.63;13.95;;;-2.80;91.50;;;;;;5013241;28;20033;-79
2020/12/30 01:51:44;;;;;;;24.42;11.82;;;-2.80;91.30;;;;;;5013354;28;20029;-80
2020/12/30 01:54:15;;;;;;;22.10;12.30;;;-2.80;91.20;;;;;;5013843;28;20372;-79
2020/12/30 01:56:42;;;;;;;16.88;8.80;;;-2.90;91.20;;;;;;5013144;28;20026;-80
2020/12/30 01:59:11;;;;;;;21.25;12.00;;;-2.90;91.20;;;;;;5013129;28;20025;-80
2020/12/30 02:01:42;;;;;;;21.40;12.48;;;-2.90;91.30;;;;;;5012816;28;20403;-79
2020/12/30 02:04:10;;;;;;;18.40;9.40;;;-2.90;91.50;;;;;;5012676;28;20049;-78
2020/12/30 02:06:37;;;;;;;23.63;13.07;;;-2.90;91.00;;;;;;5014177;28;20030;-78
2020/12/30 02:09:04;;;;;;;21.45;12.13;;;-3.00;91.20;;;;;;4994942;28;20030;-79
2020/12/30 02:11:30;;;;;;;;;;;-3.00;91.30;;;;;;5000219;28;20110;-81
2020/12/30 02:14:13;;;;;;;18.98;12.07;;;-3.00;91.20;;;;;;5000043;28;19964;-78
2020/12/30 02:16:48;;;;;;;20.50;11.88;;;-3.00;91.30;;;;;;4993044;28;20054;-78
2020/12/30 02:19:14;;;;;;;21.13;12.13;;;-3.00;91.40;;;;;;4994789;28;20046;-79
2020/12/30 02:21:39;;;;;;;20.40;11.15;;;-2.90;91.30;;;;;;4996649;28;20122;-80
2020/12/30 02:24:08;;;;;;;28.58;11.43;;;-2.90;91.20;;;;;;4996734;28;20471;-78
2020/12/30 02:26:34;;;;;;;19.50;11.60;;;-2.80;91.30;;;;;;4996255;28;20369;-78
2020/12/30 02:28:59;;;;;;;18.65;11.82;;;-2.90;91.20;;;;;;4996478;28;20027;-79
2020/12/30 02:31:27;;;;;;;21.40;10.52;;;-2.90;91.50;;;;;;4996232;28;20399;-79
2020/12/30 02:33:53;;;;;;;21.90;12.75;;;-2.80;91.20;;;;;;4997114;28;20028;-78
2020/12/30 02:36:19;;;;;;;20.90;12.38;;;-2.80;91.10;;;;;;4996247;28;20117;-78
2020/12/30 02:38:44;;;;;;;20.55;11.50;;;-2.80;91.20;;;;;;4996446;28;20360;-79
2020/12/30 02:41:10;;;;;;;21.20;12.55;;;-2.80;91.10;;;;;;4996461;28;20034;-79
2020/12/30 02:43:36;;;;;;;19.35;12.18;;;-2.80;91.10;;;;;;4995923;28;20042;-77
2020/12/30 02:46:02;;;;;;;19.20;12.75;;;-2.70;91.20;;;;;;4996364;28;20022;-78
2020/12/30 02:48:28;;;;;;;20.52;12.20;;;-2.70;91.10;;;;;;4996075;28;20030;-79
2020/12/30 02:50:54;;;;;;;22.58;12.10;;;-2.70;91.00;;;;;;4994811;28;20070;-79
2020/12/30 02:53:20;;;;;;;24.98;13.40;;;-2.70;91.20;;;;;;4994630;28;20108;-78
2020/12/30 02:55:47;;;;;;;22.07;13.23;;;-2.60;91.00;;;;;;4996144;28;20030;-78
2020/12/30 02:58:13;;;;;;;19.05;12.98;;;-2.60;91.00;;;;;;4996158;28;20023;-78
2020/12/30 03:00:38;;;;;;;18.13;10.75;;;-2.60;90.90;;;;;;4995945;28;20403;-79
2020/12/30 03:03:04;;;;;;;24.70;13.02;;;-2.60;90.90;;;;;;4996041;28;20038;-78
2020/12/30 03:05:30;;;;;;;21.60;12.77;;;-2.70;90.90;;;;;;4995983;28;20097;-80
2020/12/30 03:07:56;;;;;;;25.13;15.25;;;-2.70;90.90;;;;;;4996285;28;20459;-81
2020/12/30 03:10:22;;;;;;;19.90;10.13;;;-2.70;90.90;;;;;;4995881;28;20030;-80
2020/12/30 03:12:47;;;;;;;24.50;12.20;;;-2.70;90.80;;;;;;5012872;28;20084;-80
2020/12/30 03:15:13;;;;;;;26.08;13.27;;;-2.70;90.90;;;;;;5015353;28;20081;-78
2020/12/30 03:17:39;;;;;;;21.08;12.52;;;-2.70;91.00;;;;;;5010103;28;20018;-79
2020/12/30 03:20:05;;;;;;;23.73;13.23;;;-2.70;91.00;;;;;;5006336;28;20049;-80
2020/12/30 03:22:31;;;;;;;21.70;11.48;;;-2.80;91.00;;;;;;5009411;28;20032;-79
2020/12/30 03:24:57;;;;;;;19.17;11.65;;;-2.80;91.00;;;;;;5013876;28;20064;-82
2020/12/30 03:27:22;;;;;;;21.95;13.68;;;-2.80;91.10;;;;;;5013682;28;20479;-79
2020/12/30 03:29:48;;;;;;;22.33;12.85;;;-2.80;91.10;;;;;;5014593;28;20144;-79
2020/12/30 03:32:14;;;;;;;26.27;14.43;;;-2.80;91.30;;;;;;5015149;28;20065;-79
2020/12/30 03:34:40;;;;;;;28.42;18.70;;;-2.80;91.20;;;;;;5015049;28;20025;-78
2020/12/30 03:37:05;;;;;;;18.67;10.95;;;-2.70;91.20;;;;;;5014828;28;20061;-79
2020/12/30 03:39:31;;;;;;;21.75;11.27;;;-2.70;91.20;;;;;;5014883;28;20436;-80
2020/12/30 03:41:57;;;;;;;26.20;12.80;;;-2.80;91.10;;;;;;5014678;28;20045;-78
2020/12/30 03:44:23;;;;;;;25.55;14.40;;;-2.80;91.20;;;;;;5006745;28;20034;-80
2020/12/30 03:46:49;;;;;;;27.60;13.38;;;-2.80;91.30;;;;;;5012595;28;20033;-78
2020/12/30 03:49:17;;;;;;;25.08;13.80;;;-2.90;91.40;;;;;;5015060;28;20025;-79
2020/12/30 03:51:43;;;;;;;24.00;13.35;;;-2.80;91.50;;;;;;5013136;28;20402;-80
2020/12/30 03:54:09;;;;;;;21.65;14.13;;;-2.80;91.40;;;;;;5014668;28;20022;-78
2020/12/30 03:56:34;;;;;;;25.02;13.00;;;-2.80;91.50;;;;;;5014530;28;20021;-78
2020/12/30 03:59:00;;;;;;;26.42;15.10;;;-2.70;91.50;;;;;;5014459;28;20026;-78
2020/12/30 04:01:28;;;;;;;26.48;15.02;;;-2.80;91.50;;;;;;5014530;28;20030;-78
2020/12/30 04:03:54;;;;;;;24.95;14.00;;;-2.80;91.50;;;;;;5012868;28;20434;-79
2020/12/30 04:06:20;;;;;;;32.58;16.52;;;-2.80;91.50;;;;;;5014369;28;20044;-79
2020/12/30 04:08:45;;;;;;;24.15;15.15;;;-2.70;91.70;;;;;;5014019;28;20021;-79
2020/12/30 04:11:11;;;;;;;25.52;13.73;;;-2.80;91.50;;;;;;5014267;28;20461;-78
2020/12/30 04:13:37;;;;;;;25.17;13.57;;;-2.80;91.70;;;;;;5006020;28;20117;-79
2020/12/30 04:16:03;;;;;;;23.52;13.65;;;-2.80;91.60;;;;;;5007850;28;20022;-79
2020/12/30 04:18:28;;;;;;;23.58;15.80;;;-2.70;91.70;;;;;;4995004;28;20113;-77
2020/12/30 04:20:54;;;;;;;25.77;13.57;;;-2.70;91.70;;;;;;4994334;28;20045;-80
2020/12/30 04:23:20;;;;;;;21.90;12.52;;;-2.70;91.60;;;;;;4994606;28;20053;-80
2020/12/30 04:25:55;;;;;;;29.65;15.65;;;-2.70;91.70;;;;;;4994433;28;20027;-81
2020/12/30 04:28:20;;;;;;;26.17;14.27;;;-2.70;91.70;;;;;;4995212;28;20037;-80
2020/12/30 04:30:46;;;;;;;23.40;12.30;;;-2.70;91.60;;;;;;4995399;28;20033;-80
2020/12/30 04:33:12;;;;;;;29.15;15.60;;;-2.70;91.70;;;;;;4994248;28;20106;-80
2020/12/30 04:35:38;;;;;;;36.55;16.05;;;-2.70;91.70;;;;;;4994910;28;20117;-78
2020/12/30 04:38:04;;;;;;;29.27;14.45;;;-2.80;91.80;;;;;;4994402;28;20471;-79
2020/12/30 04:40:30;;;;;;;29.23;17.15;;;-2.70;91.90;;;;;;4993344;28;20038;-79
2020/12/30 04:43:00;;;;;;;31.15;15.00;;;-2.70;91.90;;;;;;4993706;28;20029;-79
2020/12/30 04:45:26;;;;;;;33.33;15.13;;;-2.60;91.90;;;;;;4993889;28;20026;-78
2020/12/30 04:47:54;;;;;;;37.03;18.20;;;-2.60;91.80;;;;;;4993733;28;20097;-78
2020/12/30 04:50:22;;;;;;;29.77;15.68;;;-2.60;91.70;;;;;;4993743;28;20491;-79
2020/12/30 04:52:49;;;;;;;32.85;17.13;;;-2.60;91.70;;;;;;4993523;28;20021;-78
2020/12/30 04:55:24;;;;;;;17.95;9.77;;;-2.60;91.70;;;;;;4993385;28;20142;-80
2020/12/30 04:58:09;;;;;;;34.10;17.85;;;-2.50;91.80;;;;;;4993420;28;20027;-78
2020/12/30 05:00:37;;;;;;;36.75;18.83;;;-2.50;91.60;;;;;;4992979;28;20038;-80
2020/12/30 05:03:09;;;;;;;32.95;15.45;;;-2.60;91.60;;;;;;4993390;28;20100;-79
2020/12/30 05:05:38;;;;;;;34.60;17.23;;;-2.60;91.60;;;;;;4993234;28;20025;-78
2020/12/30 05:08:11;;;;;;;29.55;15.63;;;-2.60;91.60;;;;;;4992102;28;20030;-79
2020/12/30 05:10:38;;;;;;;26.42;14.60;;;-2.60;91.70;;;;;;4993149;28;20080;-79
2020/12/30 05:13:07;;;;;;;31.92;14.48;;;-2.60;91.70;;;;;;5012708;28;20040;-78
2020/12/30 05:15:34;;;;;;;34.33;16.27;;;-2.70;91.60;;;;;;5001017;28;20474;-78
2020/12/30 05:18:08;;;;;;;35.40;18.97;;;-2.60;91.90;;;;;;4997650;28;20502;-79
2020/12/30 05:20:35;;;;;;;27.50;16.23;;;-2.60;91.90;;;;;;5013403;28;20077;-79
2020/12/30 05:23:10;;;;;;;35.45;19.77;;;-2.60;91.80;;;;;;5012987;28;20026;-78
2020/12/30 05:25:38;;;;;;;30.27;17.70;;;-2.50;91.80;;;;;;5013024;28;20510;-79
2020/12/30 05:28:06;;;;;;;;;;;-2.50;91.70;;;;;;5013374;28;20029;-77
2020/12/30 05:30:33;;;;;;;30.38;17.58;;;-2.50;91.80;;;;;;5013031;28;19952;-77
2020/12/30 05:33:00;;;;;;;32.97;17.48;;;-2.50;91.70;;;;;;5012830;28;20037;-78
2020/12/30 05:35:30;;;;;;;39.05;19.05;;;-2.50;91.70;;;;;;5013092;28;20076;-78
2020/12/30 05:37:56;;;;;;;31.38;17.58;;;-2.50;91.70;;;;;;5012881;28;20416;-78
2020/12/30 05:40:24;;;;;;;52.35;22.83;;;-2.50;91.80;;;;;;5011490;28;20049;-79
2020/12/30 05:42:51;;;;;;;35.33;19.13;;;-2.40;91.90;;;;;;5012813;28;20543;-78
2020/12/30 05:45:24;;;;;;;35.38;17.48;;;-2.40;91.80;;;;;;5001013;28;20098;-79
2020/12/30 05:47:50;;;;;;;32.95;17.15;;;-2.40;91.70;;;;;;5012875;28;20114;-79
2020/12/30 05:50:26;;;;;;;27.33;16.92;;;-2.40;91.70;;;;;;5011267;28;20140;-77
2020/12/30 05:52:52;;;;;;;35.30;19.73;;;-2.40;91.80;;;;;;5014808;28;20052;-79
2020/12/30 05:55:27;;;;;;;35.08;17.73;;;-2.40;91.70;;;;;;5016311;28;20029;-80
2020/12/30 05:57:53;;;;;;;28.40;16.35;;;-2.40;91.80;;;;;;5016881;28;20022;-79
2020/12/30 06:00:19;;;;;;;39.78;19.25;;;-2.40;91.80;;;;;;5016722;28;20030;-80
2020/12/30 06:02:47;;;;;;;33.38;16.67;;;-2.40;91.80;;;;;;5016999;28;20026;-78
2020/12/30 06:05:19;;;;;;;36.40;20.27;;;-2.40;91.80;;;;;;5016341;28;20025;-79
2020/12/30 06:07:48;;;;;;;36.13;18.60;;;-2.40;91.90;;;;;;5015096;28;20498;-79
2020/12/30 06:10:18;;;;;;;36.97;20.63;;;-2.40;91.90;;;;;;5016346;28;20458;-79
2020/12/30 06:12:52;;;;;;;37.03;19.48;;;-2.40;91.90;;;;;;5016034;28;20014;-80
2020/12/30 06:15:20;;;;;;;38.40;20.25;;;-2.40;91.80;;;;;;5004734;28;20030;-81
2020/12/30 06:17:57;;;;;;;32.30;14.35;;;-2.40;91.90;;;;;;5016478;28;20018;-78
2020/12/30 06:20:37;;;;;;;33.97;17.73;;;-2.40;91.80;;;;;;5016180;28;20053;-80
2020/12/30 06:23:07;;;;;;;40.22;20.48;;;-2.40;91.80;;;;;;5016311;28;20088;-81
2020/12/30 06:25:36;;;;;;;38.17;20.17;;;-2.50;92.00;;;;;;5016188;28;20108;-79
2020/12/30 06:28:13;;;;;;;32.53;17.73;;;-2.50;92.00;;;;;;5014820;28;20034;-78
2020/12/30 06:30:41;;;;;;;46.03;21.75;;;-2.40;92.10;;;;;;4996485;28;20022;-76
2020/12/30 06:33:08;;;;;;;38.15;18.73;;;-2.40;92.10;;;;;;4995595;28;20124;-80
2020/12/30 06:35:39;;;;;;;39.33;18.45;;;-2.40;92.10;;;;;;4996325;28;20030;-80
2020/12/30 06:38:25;;;;;;;36.55;21.15;;;-2.40;92.10;;;;;;4996100;28;20113;-80
2020/12/30 06:41:01;;;;;;;40.60;20.33;;;-2.40;92.10;;;;;;4990468;28;20047;-80
2020/12/30 06:43:36;;;;;;;44.50;21.00;;;-2.50;92.10;;;;;;4994030;28;20015;-79
2020/12/30 06:46:02;;;;;;;40.03;20.17;;;-2.40;92.30;;;;;;4994448;28;20034;-79
2020/12/30 06:48:28;;;;;;;41.97;21.13;;;-2.40;92.10;;;;;;4995415;28;20065;-79
2020/12/30 06:50:54;;;;;;;41.08;19.45;;;-2.40;92.10;;;;;;4995582;28;20046;-77
2020/12/30 06:53:33;;;;;;;41.83;21.40;;;-2.40;92.10;;;;;;4995707;28;20382;-76
2020/12/30 06:56:00;;;;;;;44.90;23.15;;;-2.30;92.30;;;;;;4996106;28;20080;-78
2020/12/30 06:58:45;;;;;;;;;;;-2.30;92.30;;;;;;4996295;28;20330;-77
2020/12/30 07:01:19;;;;;;;41.85;20.48;;;-2.30;92.10;;;;;;4995346;28;19914;-78
2020/12/30 07:03:46;;;;;;;46.72;22.52;;;-2.20;92.30;;;;;;4987637;28;20022;-77
2020/12/30 07:06:31;;;;;;;;;;;-2.20;92.20;;;;;;4994798;28;20384;-77
2020/12/30 07:09:02;;;;;;;38.00;21.63;;;-2.20;92.10;;;;;;4994563;28;20371;-78
2020/12/30 07:11:53;;;;;;;50.85;22.25;;;-2.20;92.20;;;;;;5000408;28;20045;-78
2020/12/30 07:14:23;;;;;;;45.17;22.60;;;-2.10;92.30;;;;;;5011175;28;20048;-77
2020/12/30 07:16:59;;;;;;;46.25;22.80;;;-2.10;92.30;;;;;;5015095;28;20018;-77
2020/12/30 07:19:32;;;;;;;41.22;23.60;;;-2.10;92.40;;;;;;5014597;28;20044;-77
2020/12/30 07:22:09;;;;;;;45.45;24.33;;;-2.10;92.30;;;;;;5014883;28;20057;-78
2020/12/30 07:24:46;;;;;;;39.92;20.13;;;-2.10;92.50;;;;;;5014659;28;20093;-77
2020/12/30 07:27:16;;;;;;;36.90;20.20;;;-2.10;92.50;;;;;;5014669;28;20047;-76
2020/12/30 07:29:44;;;;;;;28.88;17.10;;;-2.20;92.50;;;;;;5014481;28;20030;-78
2020/12/30 07:32:11;;;;;;;41.20;20.45;;;-2.20;92.50;;;;;;5014904;28;20386;-79
2020/12/30 07:34:47;;;;;;;62.33;23.67;;;-2.30;92.80;;;;;;5014757;28;20048;-77
2020/12/30 07:37:15;;;;;;;44.78;21.83;;;-2.40;93.10;;;;;;5014696;28;20267;-79
2020/12/30 07:39:45;;;;;;;;;;;-2.30;93.20;;;;;;5015463;28;20055;-79
2020/12/30 07:42:23;;;;;;;45.38;18.45;;;-2.30;93.20;;;;;;5014659;28;19905;-78
2020/12/30 07:44:53;;;;;;;44.97;23.35;;;-2.30;93.40;;;;;;5002781;28;20101;-77
2020/12/30 07:47:21;;;;;;;45.50;23.13;;;-2.30;93.30;;;;;;5014535;28;20022;-78
2020/12/30 07:49:48;;;;;;;50.70;23.35;;;-2.30;93.40;;;;;;5014486;28;20036;-78
2020/12/30 07:52:14;;;;;;;53.77;24.10;;;-2.20;93.50;;;;;;5014683;28;20088;-77
2020/12/30 07:54:41;;;;;;;43.67;24.23;;;-2.10;93.50;;;;;;5014527;28;20026;-78
2020/12/30 07:57:09;;;;;;;47.58;22.20;;;-2.10;93.40;;;;;;5013994;28;20431;-79
2020/12/30 07:59:36;;;;;;;47.60;23.77;;;-2.00;93.40;;;;;;5014042;28;20025;-77
2020/12/30 08:02:15;;;;;;;52.10;26.20;;;-2.00;93.20;;;;;;5014012;28;20018;-78
2020/12/30 08:04:43;;;;;;;51.70;23.92;;;-1.90;93.30;;;;;;5014182;28;20080;-78
2020/12/30 08:07:14;;;;;;;49.13;21.90;;;-1.90;93.20;;;;;;5014379;28;20026;-78
2020/12/30 08:09:44;;;;;;;62.60;25.50;;;-1.90;93.00;;;;;;5014408;28;20026;-79
2020/12/30 08:12:14;;;;;;;45.35;21.45;;;-1.80;93.10;;;;;;5012047;28;20095;-77
2020/12/30 08:14:43;;;;;;;54.97;21.17;;;-1.80;92.90;;;;;;5013991;28;20025;-80
2020/12/30 08:17:14;;;;;;;46.08;21.42;;;-1.90;92.70;;;;;;5013817;28;20025;-78
2020/12/30 08:19:48;;;;;;;50.17;25.77;;;-2.00;93.20;;;;;;5013546;28;20057;-78
2020/12/30 08:22:17;;;;;;;53.15;24.88;;;-2.00;92.90;;;;;;5014025;28;20036;-77
2020/12/30 08:24:54;;;;;;;47.85;25.67;;;-1.90;93.10;;;;;;5013684;28;20072;-78
2020/12/30 08:27:24;;;;;;;58.65;28.88;;;-1.80;93.00;;;;;;5013843;28;20117;-77
2020/12/30 08:29:51;;;;;;;58.13;26.27;;;-1.80;92.90;;;;;;5013997;28;20017;-77
2020/12/30 08:33:00;;;;;;;59.15;25.38;;;-1.80;92.90;;;;;;5012525;28;20033;-77
2020/12/30 08:35:33;;;;;;;57.20;25.15;;;-1.70;93.00;;;;;;5013676;28;20014;-78
2020/12/30 08:38:11;;;;;;;53.75;29.30;;;-1.60;93.00;;;;;;5013480;28;20110;-78
2020/12/30 08:40:39;;;;;;;51.15;26.33;;;-1.50;92.80;;;;;;5005160;28;20023;-78
2020/12/30 08:43:11;;;;;;;60.08;26.17;;;-1.50;92.80;;;;;;5008191;28;20091;-77
2020/12/30 08:45:46;;;;;;;47.47;26.33;;;-1.50;92.70;;;;;;5001232;28;20026;-79
2020/12/30 08:48:14;;;;;;;52.72;26.83;;;-1.40;92.60;;;;;;5013109;28;20022;-78
2020/12/30 08:50:40;;;;;;;56.25;27.63;;;-1.40;92.50;;;;;;5013059;28;20029;-79
2020/12/30 08:53:06;;;;;;;60.10;27.08;;;-1.40;92.60;;;;;;5013303;28;20510;-77
2020/12/30 08:55:32;;;;;;;59.17;29.23;;;-1.30;92.50;;;;;;5013011;28;20029;-79
2020/12/30 08:57:59;;;;;;;54.42;24.75;;;-1.30;92.40;;;;;;5012977;28;20018;-79
2020/12/30 09:00:31;;;;;;;66.47;28.73;;;-1.30;92.20;;;;;;5012901;28;20104;-78
2020/12/30 09:03:11;;;;;;;50.88;25.58;;;-1.40;92.10;;;;;;5013250;28;20018;-78
2020/12/30 09:05:37;;;;;;;58.65;27.25;;;-1.40;92.10;;;;;;5013539;28;20331;-78
2020/12/30 09:08:21;;;;;;;52.67;28.45;;;-1.40;92.30;;;;;;5013078;28;20014;-77
2020/12/30 09:10:47;;;;;;;61.95;30.77;;;-1.30;92.30;;;;;;4999003;28;20018;-78
2020/12/30 09:13:17;;;;;;;58.47;25.20;;;-1.20;92.20;;;;;;5013071;28;20030;-78
2020/12/30 09:15:45;;;;;;;53.88;26.98;;;-1.20;92.10;;;;;;5011690;28;20116;-80
2020/12/30 09:18:15;;;;;;;66.18;26.80;;;-1.20;92.00;;;;;;5012407;28;20442;-78
2020/12/30 09:20:41;;;;;;;54.72;29.00;;;-1.20;92.10;;;;;;5012780;28;20056;-77
2020/12/30 09:23:08;;;;;;;56.67;28.30;;;-1.20;92.00;;;;;;5013025;28;20360;-78
2020/12/30 09:25:36;;;;;;;54.97;26.07;;;-1.10;92.00;;;;;;5013299;28;20037;-78
2020/12/30 09:28:16;;;;;;;64.20;28.55;;;-1.10;92.00;;;;;;5012843;28;20025;-79
2020/12/30 09:30:43;;;;;;;62.28;30.10;;;-1.00;92.00;;;;;;5014206;28;20029;-78
2020/12/30 09:33:27;;;;;;;65.65;29.90;;;-1.00;91.80;;;;;;5021374;28;20010;-79
2020/12/30 09:35:53;;;;;;;62.03;30.02;;;-1.00;91.90;;;;;;5013275;28;20035;-77
2020/12/30 09:38:21;;;;;;;65.80;31.88;;;-0.90;91.80;;;;;;5012688;28;20101;-80
2020/12/30 09:40:50;;;;;;;68.00;31.73;;;-0.80;91.80;;;;;;5012566;28;20410;-79
2020/12/30 09:43:21;;;;;;;63.15;34.85;;;-0.90;91.50;;;;;;5012296;28;20124;-80
2020/12/30 09:45:48;;;;;;;72.88;35.30;;;-0.80;91.50;;;;;;5001875;28;20040;-78
2020/12/30 09:48:16;;;;;;;70.50;33.92;;;-0.80;91.50;;;;;;5012367;28;20018;-78
2020/12/30 09:50:44;;;;;;;71.28;33.08;;;-0.80;91.40;;;;;;5012501;28;20038;-79
2020/12/30 09:53:10;;;;;;;68.65;31.35;;;-0.80;91.30;;;;;;5012397;28;20022;-78
2020/12/30 09:55:37;;;;;;;75.30;35.47;;;-0.80;91.10;;;;;;5012262;28;20029;-78
2020/12/30 09:58:03;;;;;;;64.97;29.58;;;-0.90;91.10;;;;;;5010956;28;20026;-79
2020/12/30 10:00:29;;;;;;;72.80;32.93;;;-0.90;91.20;;;;;;5010956;28;20065;-79
2020/12/30 10:02:55;;;;;;;63.10;30.77;;;-0.80;91.30;;;;;;5012500;28;20443;-80
2020/12/30 10:05:21;;;;;;;65.78;29.33;;;-0.70;91.20;;;;;;5012266;28;20022;-80
2020/12/30 10:07:47;;;;;;;75.30;35.63;;;-0.70;91.10;;;;;;5006996;28;20014;-79
2020/12/30 10:10:13;;;;;;;63.22;31.45;;;-0.70;90.90;;;;;;5006938;28;20025;-79
2020/12/30 10:12:39;;;;;;;65.50;30.67;;;-0.60;90.90;;;;;;5010377;28;20411;-78
2020/12/30 10:15:10;;;;;;;65.13;28.92;;;-0.70;90.70;;;;;;5001302;28;20411;-79
2020/12/30 10:17:37;;;;;;;57.95;30.80;;;-0.70;90.80;;;;;;5012540;28;20018;-78
2020/12/30 10:20:08;;;;;;;59.60;27.97;;;-0.80;90.80;;;;;;5012332;28;20053;-78
2020/12/30 10:22:34;;;;;;;65.25;29.02;;;-0.80;90.80;;;;;;5012088;28;20028;-78
2020/12/30 10:25:00;;;;;;;57.15;27.38;;;-0.80;90.90;;;;;;5012304;28;20021;-80
2020/12/30 10:27:27;;;;;;;61.78;30.85;;;-0.70;90.90;;;;;;5012315;28;20030;-79
2020/12/30 10:29:53;;;;;;;58.88;29.70;;;-0.70;90.80;;;;;;5012333;28;20136;-80
2020/12/30 10:32:18;;;;;;;69.07;31.80;;;-0.60;90.80;;;;;;5002614;28;20051;-77
2020/12/30 10:34:44;;;;;;;74.43;31.55;;;-0.60;90.70;;;;;;5006650;28;20029;-79
2020/12/30 10:37:10;;;;;;;56.17;29.85;;;-0.60;90.60;;;;;;5001177;28;20475;-80
2020/12/30 10:39:36;;;;;;;85.18;33.72;;;-0.60;90.70;;;;;;5014200;28;20030;-79
2020/12/30 10:42:04;;;;;;;64.80;30.88;;;-0.60;90.70;;;;;;5015041;28;20435;-78
2020/12/30 10:44:31;;;;;;;63.50;31.90;;;-0.60;90.60;;;;;;5006157;28;20030;-79
2020/12/30 10:46:57;;;;;;;66.72;30.88;;;-0.60;90.50;;;;;;5014660;28;20364;-79
2020/12/30 10:49:23;;;;;;;63.92;29.67;;;-0.60;90.60;;;;;;5014280;28;20025;-79
2020/12/30 10:51:50;;;;;;;56.88;29.33;;;-0.60;90.60;;;;;;5015761;28;20109;-79
2020/12/30 10:54:17;;;;;;;61.35;31.25;;;-0.60;90.50;;;;;;5007394;28;20479;-78
2020/12/30 10:56:54;;;;;;;67.50;32.67;;;-0.60;90.50;;;;;;5010069;28;20023;-79
2020/12/30 10:59:21;;;;;;;69.60;30.90;;;-0.50;90.50;;;;;;5004704;28;20506;-77
2020/12/30 11:01:54;;;;;;;65.68;30.95;;;-0.60;90.60;;;;;;5015527;28;20037;-78
2020/12/30 11:04:20;;;;;;;67.75;30.98;;;-0.60;90.60;;;;;;5015879;28;20022;-81
2020/12/30 11:06:46;;;;;;;65.97;32.13;;;-0.50;90.60;;;;;;5007013;28;20026;-78
2020/12/30 11:09:13;;;;;;;69.65;33.22;;;-0.60;90.50;;;;;;5015272;28;20029;-79
2020/12/30 11:11:40;;;;;;;60.45;30.17;;;-0.60;90.50;;;;;;5013992;28;20613;-78
2020/12/30 11:14:06;;;;;;;60.00;31.98;;;-0.60;90.60;;;;;;5015594;28;20022;-81
2020/12/30 11:16:32;;;;;;;55.38;28.50;;;-0.60;90.60;;;;;;5015563;28;20025;-79
2020/12/30 11:18:58;;;;;;;75.45;33.13;;;-0.60;90.60;;;;;;5013736;28;20049;-79
2020/12/30 11:21:24;;;;;;;79.18;34.22;;;-0.60;90.60;;;;;;5014675;28;20037;-79
2020/12/30 11:23:49;;;;;;;66.15;31.00;;;-0.60;90.60;;;;;;5015255;28;20025;-79
2020/12/30 11:26:15;;;;;;;56.88;29.00;;;-0.50;90.60;;;;;;5014736;28;20032;-77
2020/12/30 11:28:41;;;;;;;67.00;32.42;;;-0.50;90.60;;;;;;5015439;28;20062;-78
2020/12/30 11:31:09;;;;;;;56.85;31.65;;;-0.50;90.50;;;;;;5014889;28;20442;-79
2020/12/30 11:33:36;;;;;;;;;;;-0.50;90.40;;;;;;5016340;28;20459;-79
2020/12/30 11:36:02;;;;;;;58.72;30.23;;;-0.50;90.40;;;;;;5015552;28;19909;-79
2020/12/30 11:38:28;;;;;;;66.40;28.15;;;-0.50;90.40;;;;;;5015191;28;20022;-79
2020/12/30 11:40:54;;;;;;;58.08;28.38;;;-0.60;90.40;;;;;;5014959;28;20435;-80
2020/12/30 11:43:20;;;;;;;62.38;30.92;;;-0.70;90.50;;;;;;5014018;28;20033;-77
2020/12/30 11:45:46;;;;;;;67.20;28.13;;;-0.60;90.60;;;;;;5003881;28;20064;-78
2020/12/30 11:48:12;;;;;;;64.60;32.95;;;-0.60;90.60;;;;;;4999622;28;20041;-78
2020/12/30 11:50:38;;;;;;;59.08;31.35;;;-0.60;90.60;;;;;;5009114;28;20484;-79
2020/12/30 11:53:04;;;;;;;60.15;32.10;;;-0.50;90.60;;;;;;5010285;28;20071;-80
2020/12/30 11:55:30;;;;;;;54.10;29.92;;;-0.50;90.50;;;;;;5018132;28;20032;-79
2020/12/30 11:57:56;;;;;;;52.20;26.27;;;-0.50;90.50;;;;;;5015501;28;20054;-79
2020/12/30 12:00:22;;;;;;;62.97;29.25;;;-0.50;90.30;;;;;;5017240;28;20057;-79
2020/12/30 12:02:47;;;;;;;66.35;32.28;;;-0.60;90.40;;;;;;5019108;28;20022;-79
2020/12/30 12:05:14;;;;;;;59.60;27.27;;;-0.60;90.60;;;;;;5007678;28;20081;-78
2020/12/30 12:07:41;;;;;;;55.25;27.92;;;-0.60;90.60;;;;;;5014484;28;20427;-78
2020/12/30 12:10:09;;;;;;;61.28;28.92;;;-0.60;90.60;;;;;;5015047;28;20034;-77
2020/12/30 12:12:36;;;;;;;54.15;28.98;;;-0.50;90.60;;;;;;5015082;28;20045;-77
2020/12/30 12:15:06;;;;;;;49.35;26.23;;;-0.50;90.60;;;;;;5014643;28;20074;-78
2020/12/30 12:17:33;;;;;;;49.85;27.23;;;-0.50;90.60;;;;;;5014205;28;20057;-78
2020/12/30 12:19:59;;;;;;;58.50;25.98;;;-0.50;90.50;;;;;;5013983;28;20045;-78
2020/12/30 12:22:25;;;;;;;55.40;25.75;;;-0.50;90.50;;;;;;5017066;28;20383;-76
2020/12/30 12:24:54;;;;;;;54.83;24.38;;;-0.50;90.40;;;;;;5014582;28;20121;-78
2020/12/30 12:27:20;;;;;;;51.17;26.40;;;-0.60;90.50;;;;;;5013975;28;20155;-79
2020/12/30 12:29:48;;;;;;;50.58;25.95;;;-0.50;90.50;;;;;;4997073;28;20487;-79
2020/12/30 12:32:17;;;;;;;52.53;26.50;;;-0.60;90.40;;;;;;5003836;28;20021;-79
2020/12/30 12:34:45;;;;;;;53.60;24.17;;;-0.70;90.50;;;;;;5012261;28;20030;-78